Terminal Aerodrome Forecast
Issued by NWS

Current Version | Previous Version | Text Only | Print | Product List | Glossary Off
Versions: 1 2 3 4 5 6 7 8 9 10 11 12 13 14 15 16 17 18 19 20 21 22 23 24 25 26 27 28

393
FTUS41 KILN 031956 AAA
TAFLUK
TAF AMD
KLUK 031956Z 0320/0418 00000KT P6SM OVC035
     FM040300 00000KT P6SM FEW040 BKN150
     FM041400 12006KT P6SM VCSH BKN060=

USA.gov is the U.S. government's official web portal to all federal, state and local government web resources and services.